createdAt,value
2019-02-15T00:00:43.549Z,84.42
2019-02-15T00:03:50.384Z,84.22
2019-02-15T00:06:57.334Z,84.17
2019-02-15T00:10:04.432Z,83.91
2019-02-15T00:13:13.779Z,84.12
2019-02-15T00:16:20.586Z,84.44
2019-02-15T00:19:38.204Z,84.28
2019-02-15T00:22:45.043Z,84.32
2019-02-15T00:25:52.100Z,84.35
2019-02-15T00:28:58.949Z,84.50
2019-02-15T00:32:06.238Z,84.12
2019-02-15T00:35:13.730Z,84.28
2019-02-15T00:38:20.592Z,84.55
2019-02-15T00:41:27.760Z,84.15
2019-02-15T00:44:34.609Z,84.56
2019-02-15T00:47:45.773Z,84.30
2019-02-15T00:51:11.551Z,84.41
2019-02-15T00:54:27.011Z,84.56
2019-02-15T00:57:51.605Z,84.78
2019-02-15T01:01:10.804Z,84.48
2019-02-15T01:04:34.253Z,84.58
2019-02-15T01:07:59.982Z,84.36
2019-02-15T01:11:28.726Z,84.40
2019-02-15T01:14:35.627Z,84.40
2019-02-15T01:17:42.628Z,83.94
2019-02-15T01:20:49.660Z,84.28
2019-02-15T01:23:56.447Z,83.85
2019-02-15T01:27:16.452Z,83.74
2019-02-15T01:30:48.681Z,83.51
2019-02-15T01:34:16.409Z,83.09
2019-02-15T01:37:29.638Z,82.99
2019-02-15T01:40:56.888Z,83.48
2019-02-15T01:44:09.930Z,83.18
2019-02-15T01:47:29.480Z,83.34
2019-02-15T01:50:36.318Z,83.46
2019-02-15T01:53:43.393Z,83.52
2019-02-15T01:56:50.179Z,83.20
2019-02-15T01:59:57.074Z,83.81
2019-02-15T02:03:03.942Z,83.55
2019-02-15T02:06:12.247Z,83.90
2019-02-15T02:09:20.137Z,84.09
2019-02-15T02:12:26.969Z,83.96
2019-02-15T02:15:33.769Z,84.36
2019-02-15T02:18:47.299Z,84.17
2019-02-15T02:21:56.222Z,84.46
2019-02-15T02:25:06.126Z,84.65
2019-02-15T02:28:13.885Z,84.70
2019-02-15T02:31:20.816Z,84.44
2019-02-15T02:34:27.868Z,84.63
2019-02-15T02:37:36.648Z,84.98
2019-02-15T02:40:43.616Z,84.94
2019-02-15T02:43:59.464Z,85.12
2019-02-15T02:46:59.604Z,84.87
2019-02-15T02:50:06.703Z,85.35
2019-02-15T02:53:13.569Z,85.34
2019-02-15T02:56:20.648Z,85.44
2019-02-15T02:59:27.622Z,85.51
2019-02-15T03:02:34.540Z,85.50
2019-02-15T03:05:41.637Z,85.76
2019-02-15T03:08:48.576Z,85.32
2019-02-15T03:11:55.583Z,85.30
2019-02-15T03:15:02.513Z,85.25
2019-02-15T03:18:09.352Z,84.84
2019-02-15T03:21:19.229Z,84.77
2019-02-15T03:24:24.971Z,84.42
2019-02-15T03:27:34.006Z,84.84
2019-02-15T03:30:40.865Z,84.46
2019-02-15T03:33:47.758Z,84.29
2019-02-15T03:37:22.612Z,84.42
2019-02-15T03:40:48.438Z,84.35
2019-02-15T03:43:56.314Z,84.32
2019-02-15T03:47:04.578Z,84.34
2019-02-15T03:50:11.561Z,84.43
2019-02-15T03:53:18.437Z,83.92
2019-02-15T03:56:25.373Z,83.81
2019-02-15T03:59:32.325Z,84.01
2019-02-15T04:02:39.184Z,83.94
2019-02-15T04:05:46.011Z,84.01
2019-02-15T04:08:52.879Z,83.67
2019-02-15T04:11:59.774Z,83.77
2019-02-15T04:15:09.417Z,84.00
2019-02-15T04:18:15.936Z,84.25
2019-02-15T04:21:22.822Z,84.50
2019-02-15T04:24:29.638Z,84.48
2019-02-15T04:27:36.514Z,84.48
2019-02-15T04:30:43.556Z,84.67
2019-02-15T04:33:53.173Z,84.89
2019-02-15T04:37:00.002Z,84.69
2019-02-15T04:40:08.185Z,84.61
2019-02-15T04:43:15.069Z,84.61
2019-02-15T04:46:21.848Z,84.74
2019-02-15T04:49:29.211Z,84.83
2019-02-15T04:52:36.140Z,84.93
2019-02-15T04:55:43.601Z,85.03
2019-02-15T04:58:50.640Z,85.18
2019-02-15T05:01:57.618Z,84.90
2019-02-15T05:05:05.581Z,84.94
2019-02-15T05:08:12.606Z,84.79
2019-02-15T05:11:20.546Z,84.98
2019-02-15T05:14:27.566Z,84.94
2019-02-15T05:17:34.354Z,85.11
2019-02-15T05:20:41.175Z,84.93
2019-02-15T05:23:50.392Z,85.11
2019-02-15T05:26:57.282Z,85.16
2019-02-15T05:30:04.049Z,85.14
2019-02-15T05:33:10.869Z,84.64
2019-02-15T05:36:17.636Z,85.00
2019-02-15T05:39:25.962Z,85.06
2019-02-15T05:42:32.794Z,85.28
2019-02-15T05:45:41.201Z,85.39
2019-02-15T05:48:48.280Z,85.33
2019-02-15T05:51:55.635Z,85.30
2019-02-15T05:55:02.671Z,85.06
2019-02-15T05:58:09.553Z,85.24
2019-02-15T06:01:17.111Z,85.40
2019-02-15T06:04:25.155Z,84.88
2019-02-15T06:07:32.025Z,85.16
2019-02-15T06:10:38.963Z,84.95
2019-02-15T06:13:45.972Z,85.29
2019-02-15T06:16:52.803Z,85.42
2019-02-15T06:19:59.654Z,85.56
2019-02-15T06:23:07.671Z,85.18
2019-02-15T06:26:14.788Z,85.29
2019-02-15T06:29:21.610Z,84.73
2019-02-15T06:32:28.476Z,85.12
2019-02-15T06:35:35.480Z,85.19
2019-02-15T06:38:42.294Z,85.01
2019-02-15T06:41:49.273Z,85.12
2019-02-15T06:44:56.267Z,84.81
2019-02-15T06:48:03.288Z,84.53
2019-02-15T06:51:10.264Z,84.64
2019-02-15T06:54:17.581Z,84.50
2019-02-15T06:57:24.506Z,84.64
2019-02-15T07:01:05.681Z,84.82
2019-02-15T07:04:29.897Z,84.73
2019-02-15T07:07:36.897Z,84.57
2019-02-15T07:10:43.729Z,84.56
2019-02-15T07:13:52.499Z,84.70
2019-02-15T07:16:59.355Z,84.51
2019-02-15T07:20:08.064Z,84.47
2019-02-15T07:23:16.059Z,84.52
2019-02-15T07:26:23.034Z,84.32
2019-02-15T07:29:29.928Z,84.29
2019-02-15T07:32:36.825Z,84.46
2019-02-15T07:35:43.996Z,83.89
2019-02-15T07:38:51.197Z,82.93
2019-02-15T07:41:58.076Z,83.11
2019-02-15T07:45:05.104Z,82.99
2019-02-15T07:48:12.126Z,83.01
2019-02-15T07:51:18.934Z,82.78
2019-02-15T07:54:27.400Z,82.31
2019-02-15T07:57:34.230Z,81.73
2019-02-15T08:00:41.110Z,81.63
2019-02-15T08:03:48.066Z,81.84
2019-02-15T08:06:55.144Z,81.43
2019-02-15T08:10:02.047Z,80.55
2019-02-15T08:13:08.930Z,79.29
2019-02-15T08:16:15.943Z,78.91
2019-02-15T08:19:22.815Z,79.11
2019-02-15T08:22:29.707Z,77.84
2019-02-15T08:25:36.608Z,76.74
2019-02-15T08:28:43.573Z,77.33
2019-02-15T08:31:50.448Z,76.71
2019-02-15T08:34:57.407Z,78.11
2019-02-15T08:38:04.294Z,78.01
2019-02-15T08:41:11.275Z,77.59
2019-02-15T08:44:18.219Z,77.14
2019-02-15T08:47:25.264Z,77.02
2019-02-15T08:50:32.058Z,76.46
2019-02-15T08:53:38.913Z,76.12
2019-02-15T08:56:46.152Z,76.25
2019-02-15T08:59:54.086Z,76.26
2019-02-15T09:03:01.148Z,74.82
2019-02-15T09:06:08.219Z,74.57
2019-02-15T09:09:15.114Z,74.55
2019-02-15T09:12:22.045Z,74.32
2019-02-15T09:15:29.007Z,73.57
2019-02-15T09:18:35.860Z,72.88
2019-02-15T09:21:42.732Z,73.01
2019-02-15T09:24:49.665Z,72.05
2019-02-15T09:28:14.917Z,71.32
2019-02-15T09:31:21.933Z,72.56
2019-02-15T09:34:28.868Z,71.78
2019-02-15T09:37:37.084Z,71.79
2019-02-15T09:40:45.049Z,71.60
2019-02-15T09:43:51.890Z,70.93
2019-02-15T09:46:58.864Z,69.70
2019-02-15T09:50:07.539Z,68.32
2019-02-15T09:53:15.114Z,69.19
2019-02-15T09:56:22.021Z,68.26
2019-02-15T09:59:32.165Z,67.67
2019-02-15T10:02:39.166Z,64.54
2019-02-15T10:05:45.954Z,65.65
2019-02-15T10:08:52.865Z,65.70
2019-02-15T10:11:59.728Z,64.24
2019-02-15T10:15:07.097Z,65.33
2019-02-15T10:18:14.183Z,64.90
2019-02-15T10:21:27.275Z,63.90
2019-02-15T10:24:43.353Z,63.60
2019-02-15T10:27:54.603Z,64.75
2019-02-15T10:31:02.835Z,62.36
2019-02-15T10:34:11.113Z,62.24
2019-02-15T10:37:19.144Z,60.02
2019-02-15T10:40:26.069Z,60.87
2019-02-15T10:43:33.268Z,59.13
2019-02-15T10:46:40.392Z,60.44
2019-02-15T10:49:47.281Z,58.63
2019-02-15T10:52:54.429Z,61.24
2019-02-15T10:56:01.758Z,59.53
2019-02-15T10:59:08.864Z,60.84
2019-02-15T11:02:17.060Z,58.99
2019-02-15T11:05:24.179Z,60.02
2019-02-15T11:08:31.582Z,56.79
2019-02-15T11:11:38.868Z,57.46
2019-02-15T11:14:46.277Z,55.71
2019-02-15T11:17:54.572Z,57.50
2019-02-15T11:21:01.484Z,55.75
2019-02-15T11:24:08.418Z,55.91
2019-02-15T11:27:15.363Z,56.14
2019-02-15T11:30:22.450Z,53.85
2019-02-15T11:33:29.255Z,51.36
2019-02-15T11:36:36.384Z,54.17
2019-02-15T11:39:43.368Z,50.20
2019-02-15T11:42:50.310Z,49.29
2019-02-15T11:45:57.291Z,49.65
2019-02-15T11:49:07.117Z,52.72
2019-02-15T11:52:14.147Z,49.02
2019-02-15T11:55:21.364Z,49.12
2019-02-15T11:58:29.507Z,46.94
2019-02-15T12:01:37.595Z,49.32
2019-02-15T12:04:44.833Z,49.80
2019-02-15T12:07:51.765Z,50.42
2019-02-15T12:10:58.858Z,49.28
2019-02-15T12:14:05.892Z,48.28
2019-02-15T12:17:16.410Z,51.87
2019-02-15T12:20:23.363Z,48.45
2019-02-15T12:23:30.261Z,49.52
2019-02-15T12:26:37.177Z,49.18
2019-02-15T12:29:44.078Z,49.10
2019-02-15T12:32:56.079Z,48.51
2019-02-15T12:36:03.139Z,49.49
2019-02-15T12:39:14.291Z,49.48
2019-02-15T12:42:21.007Z,47.51
2019-02-15T12:45:27.909Z,47.19
2019-02-15T12:48:34.838Z,48.05
2019-02-15T12:51:41.752Z,45.98
2019-02-15T12:54:48.729Z,46.17
2019-02-15T12:57:55.615Z,45.72
2019-02-15T13:01:02.702Z,44.71
2019-02-15T13:04:11.020Z,45.62
2019-02-15T13:07:18.208Z,46.46
2019-02-15T13:10:28.531Z,43.94
2019-02-15T13:13:35.652Z,44.05
2019-02-15T13:16:42.644Z,43.91
2019-02-15T13:19:49.516Z,44.30
2019-02-15T13:22:56.450Z,43.83
2019-02-15T13:26:08.493Z,43.80
2019-02-15T13:29:13.528Z,44.91
2019-02-15T13:32:25.328Z,44.46
2019-02-15T13:35:32.390Z,43.47
2019-02-15T13:38:40.968Z,42.71
2019-02-15T13:41:48.089Z,44.36
2019-02-15T13:44:59.533Z,42.84
2019-02-15T13:48:06.862Z,42.19
2019-02-15T13:51:14.018Z,43.76
2019-02-15T13:54:21.124Z,42.23
2019-02-15T13:57:28.711Z,43.32
2019-02-15T14:00:35.651Z,43.57
2019-02-15T14:03:42.671Z,43.18
2019-02-15T14:06:56.365Z,40.30
2019-02-15T14:10:04.357Z,40.98
2019-02-15T14:13:11.318Z,39.05
2019-02-15T14:16:18.245Z,41.04
2019-02-15T14:19:25.243Z,41.22
2019-02-15T14:22:32.191Z,39.29
2019-02-15T14:25:39.247Z,39.79
2019-02-15T14:28:46.153Z,41.31
2019-02-15T14:31:53.165Z,41.40
2019-02-15T14:35:02.246Z,38.39
2019-02-15T14:38:09.085Z,43.45
2019-02-15T14:41:16.656Z,42.73
2019-02-15T14:44:23.670Z,41.16
2019-02-15T14:47:31.545Z,44.26
2019-02-15T14:50:38.532Z,44.21
2019-02-15T14:53:45.333Z,41.96
2019-02-15T14:56:52.301Z,42.26
2019-02-15T14:59:59.146Z,44.50
2019-02-15T15:03:06.124Z,42.72
2019-02-15T15:06:13.586Z,44.52
2019-02-15T15:09:20.446Z,46.76
2019-02-15T15:12:27.825Z,41.17
2019-02-15T15:15:35.036Z,43.23
2019-02-15T15:18:41.998Z,39.56
2019-02-15T15:21:48.900Z,42.78
2019-02-15T15:24:55.968Z,44.35
2019-02-15T15:28:02.810Z,47.51
2019-02-15T15:31:11.330Z,47.60
2019-02-15T15:34:18.427Z,48.96
2019-02-15T15:37:25.420Z,48.93
2019-02-15T15:40:32.393Z,49.32
2019-02-15T15:43:39.256Z,49.55
2019-02-15T15:46:46.092Z,52.48
2019-02-15T15:49:53.099Z,54.12
2019-02-15T15:53:00.049Z,59.39
2019-02-15T15:56:06.930Z,59.44
2019-02-15T15:59:15.105Z,59.29
2019-02-15T16:02:22.046Z,60.60
2019-02-15T16:05:29.155Z,61.19
2019-02-15T16:08:36.169Z,62.69
2019-02-15T16:11:43.288Z,63.34
2019-02-15T16:14:53.208Z,65.42
2019-02-15T16:17:59.857Z,63.89
2019-02-15T16:21:06.885Z,64.19
2019-02-15T16:24:14.104Z,64.80
2019-02-15T16:27:21.044Z,63.35
2019-02-15T16:30:27.969Z,64.51
2019-02-15T16:33:34.794Z,64.23
2019-02-15T16:36:41.980Z,64.30
2019-02-15T16:39:48.774Z,65.41
2019-02-15T16:42:55.746Z,64.92
2019-02-15T16:46:02.593Z,65.64
2019-02-15T16:49:09.953Z,65.95
2019-02-15T16:52:16.924Z,66.54
2019-02-15T16:55:23.771Z,66.31
2019-02-15T16:58:30.551Z,67.61
2019-02-15T17:01:37.964Z,70.32
2019-02-15T17:04:44.989Z,68.78
2019-02-15T17:07:52.155Z,67.90
2019-02-15T17:10:59.529Z,67.71
2019-02-15T17:14:06.467Z,71.52
2019-02-15T17:17:13.823Z,70.94
2019-02-15T17:20:20.673Z,71.48
2019-02-15T17:23:27.437Z,70.47
2019-02-15T17:26:34.380Z,72.16
2019-02-15T17:29:41.264Z,69.76
2019-02-15T17:32:48.190Z,69.62
2019-02-15T17:35:55.160Z,69.51
2019-02-15T17:39:04.255Z,69.51
2019-02-15T17:42:13.629Z,69.58
2019-02-15T17:45:20.745Z,70.36
2019-02-15T17:48:27.669Z,71.04
2019-02-15T17:51:34.702Z,70.72
2019-02-15T17:54:41.997Z,72.30
2019-02-15T17:57:48.895Z,72.49
2019-02-15T18:00:57.247Z,73.01
2019-02-15T18:04:04.180Z,69.78
2019-02-15T18:07:12.786Z,71.43
2019-02-15T18:10:19.699Z,71.54
2019-02-15T18:13:26.605Z,72.10
2019-02-15T18:16:33.533Z,70.76
2019-02-15T18:19:47.027Z,73.18
2019-02-15T18:22:49.482Z,72.39
2019-02-15T18:25:56.540Z,71.74
2019-02-15T18:29:03.483Z,71.08
2019-02-15T18:32:13.452Z,70.87
2019-02-15T18:35:20.379Z,71.90
2019-02-15T18:38:27.439Z,72.28
2019-02-15T18:41:34.565Z,70.06
2019-02-15T18:44:41.372Z,68.43
2019-02-15T18:47:48.374Z,67.70
2019-02-15T18:50:55.260Z,68.42
2019-02-15T18:54:02.278Z,68.36
2019-02-15T18:57:09.227Z,70.41
2019-02-15T19:00:22.543Z,70.54
2019-02-15T19:03:29.647Z,69.16
2019-02-15T19:06:39.326Z,69.34
2019-02-15T19:09:46.395Z,68.61
2019-02-15T19:12:53.629Z,70.18
2019-02-15T19:16:01.790Z,70.90
2019-02-15T19:19:11.916Z,70.14
2019-02-15T19:22:22.747Z,71.92
2019-02-15T19:25:31.314Z,70.34
2019-02-15T19:28:39.348Z,70.67
2019-02-15T19:31:49.809Z,71.88
2019-02-15T19:34:58.032Z,72.20
2019-02-15T19:38:08.909Z,71.71
2019-02-15T19:41:17.014Z,72.50
2019-02-15T19:44:24.039Z,72.83
2019-02-15T19:47:30.970Z,71.63
2019-02-15T19:50:39.064Z,72.52
2019-02-15T19:53:46.029Z,72.62
2019-02-15T19:56:53.457Z,72.87
2019-02-15T20:00:00.733Z,74.00
2019-02-15T20:03:07.874Z,73.12
2019-02-15T20:06:15.116Z,74.10
2019-02-15T20:09:21.958Z,74.21
2019-02-15T20:12:28.881Z,73.04
2019-02-15T20:15:36.217Z,73.70
2019-02-15T20:18:43.349Z,72.60
2019-02-15T20:21:50.453Z,72.69
2019-02-15T20:24:58.749Z,73.25
2019-02-15T20:28:13.613Z,72.21
2019-02-15T20:31:14.887Z,72.59
2019-02-15T20:34:21.777Z,72.57
2019-02-15T20:37:28.755Z,72.96
2019-02-15T20:40:35.722Z,73.36
2019-02-15T20:43:42.683Z,74.10
2019-02-15T20:46:49.748Z,72.40
2019-02-15T20:49:58.308Z,73.12
2019-02-15T20:53:05.437Z,73.61
2019-02-15T20:56:12.490Z,73.84
2019-02-15T20:59:19.493Z,74.03
2019-02-15T21:02:26.389Z,74.09
2019-02-15T21:05:33.300Z,74.21
2019-02-15T21:08:40.440Z,74.31
2019-02-15T21:11:47.453Z,73.82
2019-02-15T21:14:54.310Z,74.17
2019-02-15T21:18:01.515Z,75.26
2019-02-15T21:21:08.484Z,74.40
2019-02-15T21:24:15.809Z,74.66
2019-02-15T21:27:22.878Z,75.54
2019-02-15T21:30:29.878Z,76.47
2019-02-15T21:33:36.774Z,76.61
2019-02-15T21:36:45.050Z,76.53
2019-02-15T21:39:51.920Z,76.40
2019-02-15T21:42:59.031Z,75.90
2019-02-15T21:46:06.068Z,76.79
2019-02-15T21:49:13.643Z,75.66
2019-02-15T21:52:22.864Z,75.31
2019-02-15T21:55:31.195Z,75.54
2019-02-15T21:58:38.210Z,76.70
2019-02-15T22:01:45.059Z,76.65
2019-02-15T22:04:52.072Z,76.61
2019-02-15T22:07:58.942Z,76.22
2019-02-15T22:11:05.896Z,75.69
2019-02-15T22:14:14.392Z,76.30
2019-02-15T22:17:21.524Z,76.56
2019-02-15T22:20:28.484Z,75.77
2019-02-15T22:23:35.353Z,76.06
2019-02-15T22:26:42.228Z,75.74
2019-02-15T22:29:50.308Z,76.04
2019-02-15T22:32:57.255Z,76.36
2019-02-15T22:36:04.137Z,76.08
2019-02-15T22:39:11.247Z,76.37
2019-02-15T22:42:18.120Z,76.87
2019-02-15T22:45:25.191Z,77.11
2019-02-15T22:48:32.047Z,76.23
2019-02-15T22:51:39.317Z,78.30
2019-02-15T22:54:46.192Z,77.60
2019-02-15T22:57:53.042Z,77.78
2019-02-15T23:01:20.391Z,79.28
2019-02-15T23:04:27.528Z,79.31
2019-02-15T23:07:36.199Z,78.54
2019-02-15T23:10:43.053Z,77.75
2019-02-15T23:13:49.992Z,77.07
2019-02-15T23:16:57.032Z,75.55
2019-02-15T23:20:03.981Z,74.94
2019-02-15T23:23:11.080Z,75.42
2019-02-15T23:26:17.864Z,75.80
2019-02-15T23:29:24.931Z,76.66
2019-02-15T23:32:32.137Z,76.76
2019-02-15T23:35:39.035Z,77.37
2019-02-15T23:38:45.899Z,76.96
2019-02-15T23:41:53.004Z,76.83
2019-02-15T23:44:59.788Z,77.71
2019-02-15T23:48:06.688Z,77.68
2019-02-15T23:51:14.153Z,77.77
2019-02-15T23:54:22.404Z,77.78
2019-02-15T23:57:29.361Z,77.94
